Time;durP1;ratioP1;P1;durP2;ratioP2;P2;SDS_P1;SDS_P2;PMS_P1;PMS_P2;Temp;Humidity;BMP_temperature;BMP_pressure;BME280_temperature;BME280_humidity;BME280_pressure;Samples;Min_cycle;Max_cycle;Signal;HPM_P1;HPM_P2
2023/01/30 00:00:59;;;;;;;39.30;17.90;;;3.00;99.90;;;;;;5050343;28;20037;-79
2023/01/30 00:03:24;;;;;;;33.55;14.95;;;3.00;99.90;;;;;;5059119;28;20040;-79
2023/01/30 00:05:51;;;;;;;37.97;14.52;;;3.00;99.90;;;;;;5078284;27;20440;-79
2023/01/30 00:08:17;;;;;;;33.92;15.95;;;3.00;99.90;;;;;;5063778;28;20029;-79
2023/01/30 00:10:43;;;;;;;32.40;13.38;;;3.00;99.90;;;;;;5064594;28;20434;-79
2023/01/30 00:13:08;;;;;;;36.03;16.13;;;3.00;99.90;;;;;;5071659;28;20035;-78
2023/01/30 00:15:34;;;;;;;38.63;17.77;;;3.10;99.90;;;;;;5054072;28;20032;-79
2023/01/30 00:17:59;;;;;;;41.60;20.10;;;3.10;99.90;;;;;;5064523;28;20020;-79
2023/01/30 00:20:25;;;;;;;27.20;11.45;;;3.10;99.90;;;;;;5040362;28;20146;-79
2023/01/30 00:22:50;;;;;;;36.17;17.02;;;3.10;99.90;;;;;;5056502;28;20043;-79
2023/01/30 00:25:16;;;;;;;38.03;16.27;;;3.10;99.90;;;;;;5044016;28;20039;-79
2023/01/30 00:27:41;;;;;;;26.90;11.80;;;3.10;99.90;;;;;;5046217;27;20028;-79
2023/01/30 00:30:08;;;;;;;37.63;17.38;;;3.10;99.90;;;;;;5044489;28;20020;-79
2023/01/30 00:32:33;;;;;;;31.90;15.80;;;3.10;99.90;;;;;;5076396;28;20110;-79
2023/01/30 00:34:59;;;;;;;30.55;14.90;;;3.10;99.90;;;;;;5059434;28;20533;-79
2023/01/30 00:37:24;;;;;;;33.10;14.52;;;3.20;99.90;;;;;;5055491;28;20529;-79
2023/01/30 00:39:50;;;;;;;23.05;11.52;;;3.20;99.90;;;;;;5048668;28;20575;-79
2023/01/30 00:47:44;;;;;;;30.70;12.68;;;3.20;99.90;;;;;;5058166;28;20043;-79
2023/01/30 00:50:10;;;;;;;44.10;18.15;;;3.30;99.90;;;;;;5035234;28;20021;-79
2023/01/30 00:52:35;;;;;;;39.22;17.40;;;3.30;99.90;;;;;;5059620;28;20090;-79
2023/01/30 00:55:01;;;;;;;30.85;12.63;;;3.30;99.90;;;;;;5057971;28;20044;-79
2023/01/30 00:57:26;;;;;;;32.78;14.88;;;3.30;99.90;;;;;;5056887;28;20078;-79
2023/01/30 00:59:55;;;;;;;31.75;15.13;;;3.30;99.90;;;;;;5060820;28;20044;-79
2023/01/30 01:02:20;;;;;;;21.35;9.90;;;3.30;99.90;;;;;;5073246;28;20035;-79
2023/01/30 01:04:46;;;;;;;30.27;13.57;;;3.30;99.90;;;;;;5056869;28;20545;-79
2023/01/30 01:07:12;;;;;;;39.92;17.33;;;3.30;99.90;;;;;;5059301;28;20433;-79
2023/01/30 01:09:37;;;;;;;34.65;16.08;;;3.40;99.90;;;;;;5057306;28;20034;-79
2023/01/30 01:12:03;;;;;;;30.33;13.52;;;3.40;99.90;;;;;;5073906;28;20032;-79
2023/01/30 01:14:29;;;;;;;38.00;15.45;;;3.40;99.90;;;;;;5066089;28;20040;-79
2023/01/30 01:16:55;;;;;;;35.30;14.82;;;3.40;99.90;;;;;;5060993;28;20036;-79
2023/01/30 01:19:20;;;;;;;24.58;13.30;;;3.40;99.90;;;;;;5056421;28;20100;-79
2023/01/30 01:21:46;;;;;;;24.35;11.05;;;3.40;99.90;;;;;;5059654;28;20080;-79
2023/01/30 01:24:12;;;;;;;28.95;11.48;;;3.40;99.90;;;;;;5039054;28;20028;-79
2023/01/30 01:26:38;;;;;;;40.30;17.98;;;3.50;99.90;;;;;;5069173;28;20040;-79
2023/01/30 01:29:03;;;;;;;28.13;13.82;;;3.50;99.90;;;;;;5078941;28;20107;-79
2023/01/30 01:31:29;;;;;;;36.83;18.00;;;3.50;99.90;;;;;;5038496;28;20396;-79
2023/01/30 01:33:55;;;;;;;20.17;10.35;;;3.50;99.90;;;;;;5032915;28;20060;-79
2023/01/30 01:36:20;;;;;;;39.30;18.88;;;3.50;99.90;;;;;;5047782;28;20147;-79
2023/01/30 01:38:46;;;;;;;29.67;14.80;;;3.40;99.90;;;;;;5038526;28;20035;-79
2023/01/30 01:41:12;;;;;;;22.58;10.95;;;3.50;99.90;;;;;;5051940;28;20027;-78
2023/01/30 01:43:58;;;;;;;19.35;9.50;;;3.50;99.90;;;;;;5068666;28;20028;-79
2023/01/30 01:46:39;;;;;;;33.35;15.90;;;3.50;99.90;;;;;;5054959;28;20577;-79
2023/01/30 01:49:24;;;;;;;31.20;13.23;;;3.50;99.90;;;;;;5063911;28;20073;-79
2023/01/30 01:51:58;;;;;;;35.08;16.23;;;3.50;99.90;;;;;;5083311;28;20142;-80
2023/01/30 01:54:43;;;;;;;35.95;16.15;;;3.50;99.90;;;;;;5061665;28;20052;-79
2023/01/30 01:57:14;;;;;;;33.75;17.85;;;3.50;99.90;;;;;;5056347;28;20396;-79
2023/01/30 02:00:03;;;;;;;32.05;16.20;;;3.50;99.90;;;;;;5047656;28;20021;-79
2023/01/30 02:02:28;;;;;;;30.33;13.82;;;3.60;99.90;;;;;;5077835;28;20373;-79
2023/01/30 02:05:01;;;;;;;23.60;11.07;;;3.60;99.90;;;;;;5076607;28;20083;-80
2023/01/30 02:07:39;;;;;;;32.72;15.30;;;3.60;99.90;;;;;;5051153;27;20827;-79
2023/01/30 02:10:06;;;;;;;39.38;18.50;;;3.60;99.90;;;;;;5071836;28;20032;-79
2023/01/30 02:12:32;;;;;;;36.22;18.25;;;3.60;99.90;;;;;;5048005;28;20024;-79
2023/01/30 02:14:57;;;;;;;38.72;15.15;;;3.60;99.90;;;;;;5080579;28;20510;-79
2023/01/30 02:17:23;;;;;;;36.53;17.90;;;3.70;99.90;;;;;;5061386;28;20031;-79
2023/01/30 02:20:16;;;;;;;25.42;11.60;;;3.60;99.90;;;;;;5074552;28;20028;-80
2023/01/30 02:22:48;;;;;;;35.63;18.67;;;3.70;99.90;;;;;;5076440;28;20033;-79
2023/01/30 02:25:58;;;;;;;28.77;13.80;;;3.70;99.90;;;;;;5079148;27;20047;-79
2023/01/30 02:28:48;;;;;;;22.25;10.02;;;3.70;99.90;;;;;;5006959;28;20033;-79
2023/01/30 02:31:24;;;;;;;28.55;14.35;;;3.70;99.90;;;;;;4974404;28;20061;-79
2023/01/30 02:34:25;;;;;;;33.78;17.42;;;3.80;99.90;;;;;;5030804;28;20064;-79
2023/01/30 02:37:17;;;;;;;29.65;13.27;;;3.70;99.90;;;;;;4994201;28;20504;-79
2023/01/30 02:40:09;;;;;;;34.47;13.05;;;3.70;99.90;;;;;;5060162;28;20553;-79
2023/01/30 02:42:57;;;;;;;33.17;15.07;;;3.80;99.90;;;;;;5073273;28;20120;-79
2023/01/30 02:46:03;;;;;;;24.67;13.13;;;3.70;99.90;;;;;;5058154;28;20028;-79
2023/01/30 02:48:41;;;;;;;43.88;22.52;;;3.80;99.90;;;;;;5054186;28;20025;-79
2023/01/30 02:51:11;;;;;;;28.45;14.40;;;3.80;99.90;;;;;;5049376;28;20100;-79
2023/01/30 02:53:36;;;;;;;36.28;17.70;;;3.80;99.90;;;;;;5071034;28;20036;-79
2023/01/30 02:56:02;;;;;;;34.42;15.73;;;3.80;99.90;;;;;;5069754;28;20051;-79
2023/01/30 02:58:32;;;;;;;34.65;17.63;;;3.80;99.90;;;;;;5049203;28;20060;-79
2023/01/30 03:01:13;;;;;;;33.47;16.38;;;3.90;99.90;;;;;;5050789;28;20041;-79
2023/01/30 03:03:45;;;;;;;26.92;13.35;;;3.90;99.90;;;;;;5079957;28;20704;-80
2023/01/30 03:06:14;;;;;;;45.00;24.20;;;3.90;99.90;;;;;;5082222;28;20079;-79
2023/01/30 03:09:11;;;;;;;39.83;21.65;;;3.90;99.90;;;;;;5071186;28;20078;-79
2023/01/30 03:11:43;;;;;;;36.53;19.20;;;3.90;99.90;;;;;;5047431;28;20027;-80
2023/01/30 03:14:15;;;;;;;37.33;20.95;;;3.90;99.90;;;;;;5093919;28;20099;-80
2023/01/30 03:16:41;;;;;;;27.40;13.38;;;3.90;99.90;;;;;;5087770;28;20028;-79
2023/01/30 03:19:10;;;;;;;36.17;18.05;;;4.00;99.90;;;;;;5053140;28;20028;-80
2023/01/30 03:21:40;;;;;;;38.20;20.65;;;4.00;99.90;;;;;;5048266;28;20115;-80
2023/01/30 03:24:06;;;;;;;27.98;12.63;;;4.00;99.90;;;;;;5063480;28;20033;-79
2023/01/30 03:26:32;;;;;;;29.60;15.43;;;4.00;99.90;;;;;;5070968;28;20054;-80
2023/01/30 03:28:57;;;;;;;34.50;17.45;;;4.10;99.90;;;;;;5051781;28;20523;-78
2023/01/30 03:31:23;;;;;;;25.92;13.20;;;4.10;99.90;;;;;;5051033;28;20021;-79
2023/01/30 03:33:48;;;;;;;30.48;14.27;;;4.10;99.90;;;;;;5069904;27;20032;-81
2023/01/30 03:36:14;;;;;;;35.22;15.63;;;4.10;99.90;;;;;;5064836;28;20043;-80
2023/01/30 03:38:40;;;;;;;28.17;11.98;;;4.10;99.90;;;;;;5058831;28;20034;-81
2023/01/30 03:41:05;;;;;;;27.70;12.38;;;4.10;99.90;;;;;;5065331;28;20384;-80
2023/01/30 03:43:31;;;;;;;30.65;15.57;;;4.10;99.90;;;;;;5048143;28;20035;-81
2023/01/30 03:45:56;;;;;;;42.03;18.40;;;4.10;99.90;;;;;;5083089;28;20386;-81
2023/01/30 03:48:22;;;;;;;37.65;18.67;;;4.20;99.90;;;;;;5068179;28;20024;-82
2023/01/30 03:50:47;;;;;;;36.67;18.23;;;4.10;99.90;;;;;;5056301;28;20213;-81
2023/01/30 03:53:13;;;;;;;30.73;17.27;;;4.10;99.90;;;;;;5038831;28;20039;-82
2023/01/30 03:55:39;;;;;;;35.88;19.02;;;4.20;99.90;;;;;;5048637;28;20040;-82
2023/01/30 03:58:05;;;;;;;34.78;16.85;;;4.20;99.90;;;;;;5033424;28;20094;-81
2023/01/30 04:00:30;;;;;;;28.67;13.77;;;4.20;99.90;;;;;;5035938;28;20377;-81
2023/01/30 04:02:56;;;;;;;37.30;15.98;;;4.20;99.90;;;;;;5064359;28;20048;-82
2023/01/30 04:05:22;;;;;;;33.53;18.40;;;4.20;99.90;;;;;;5052409;27;20039;-82
2023/01/30 04:07:47;;;;;;;32.95;13.65;;;4.20;99.90;;;;;;5062507;28;20025;-81
2023/01/30 04:10:17;;;;;;;28.08;13.30;;;4.20;99.90;;;;;;5044737;28;20032;-81
2023/01/30 04:12:42;;;;;;;20.65;10.75;;;4.30;99.90;;;;;;5043541;28;20367;-82
2023/01/30 04:15:09;;;;;;;35.42;17.60;;;4.20;99.90;;;;;;5038793;28;20036;-82
2023/01/30 04:17:34;;;;;;;35.33;15.88;;;4.20;99.90;;;;;;5038516;28;20098;-81
2023/01/30 04:20:00;;;;;;;41.83;22.40;;;4.30;99.90;;;;;;5063756;28;20036;-82
2023/01/30 04:22:25;;;;;;;22.42;11.63;;;4.20;99.90;;;;;;5061018;28;20040;-81
2023/01/30 04:24:51;;;;;;;36.80;22.77;;;4.30;99.90;;;;;;5046914;28;20077;-81
2023/01/30 04:27:16;;;;;;;45.33;21.15;;;4.20;99.90;;;;;;5037572;28;20517;-82
2023/01/30 04:29:42;;;;;;;26.45;14.50;;;4.30;99.90;;;;;;5065561;28;20539;-81
2023/01/30 04:32:07;;;;;;;23.77;12.35;;;4.30;99.90;;;;;;5040888;28;20547;-81
2023/01/30 04:34:33;;;;;;;34.63;16.05;;;4.30;99.90;;;;;;5061792;28;20544;-81
2023/01/30 04:36:58;;;;;;;33.70;17.45;;;4.30;99.90;;;;;;5060281;28;20071;-82
2023/01/30 04:39:24;;;;;;;27.05;14.70;;;4.30;99.90;;;;;;5066971;28;20035;-82
2023/01/30 04:41:50;;;;;;;37.03;16.98;;;4.30;99.90;;;;;;5061749;28;20400;-82
2023/01/30 04:44:15;;;;;;;36.10;17.20;;;4.30;99.90;;;;;;5040704;28;20491;-82
2023/01/30 04:46:41;;;;;;;17.27;8.80;;;4.30;99.90;;;;;;5047543;28;20556;-82
2023/01/30 04:49:08;;;;;;;36.70;18.95;;;4.40;99.90;;;;;;5057514;28;20151;-82
2023/01/30 04:51:34;;;;;;;36.20;22.27;;;4.30;99.90;;;;;;5044171;28;20032;-82
2023/01/30 04:53:59;;;;;;;24.90;12.63;;;4.40;99.90;;;;;;5066773;28;20069;-81
2023/01/30 04:56:25;;;;;;;40.67;22.00;;;4.40;99.90;;;;;;5072682;28;20035;-82
2023/01/30 04:58:50;;;;;;;28.17;13.93;;;4.40;99.90;;;;;;5066635;28;20036;-81
2023/01/30 05:01:23;;;;;;;27.45;16.10;;;4.40;99.90;;;;;;5062074;28;20024;-81
2023/01/30 05:03:52;;;;;;;20.17;11.75;;;4.40;99.90;;;;;;5089563;28;20036;-81
2023/01/30 05:06:18;;;;;;;13.00;6.65;;;4.40;99.90;;;;;;5068642;28;20023;-81
2023/01/30 05:08:46;;;;;;;23.50;13.85;;;4.30;99.90;;;;;;5068566;28;20051;-81
2023/01/30 05:11:12;;;;;;;32.30;16.58;;;4.50;99.90;;;;;;5052926;28;20024;-81
2023/01/30 05:13:37;;;;;;;22.13;9.75;;;4.40;99.90;;;;;;5071564;28;20024;-82
2023/01/30 05:16:03;;;;;;;18.13;10.43;;;4.50;99.90;;;;;;5073734;28;20020;-82
2023/01/30 05:18:29;;;;;;;23.98;14.80;;;4.50;99.90;;;;;;5070879;28;20032;-82
2023/01/30 05:21:02;;;;;;;19.60;9.32;;;4.50;99.90;;;;;;5053249;28;20029;-82
2023/01/30 05:23:28;;;;;;;20.70;11.95;;;4.50;99.90;;;;;;5051443;28;20039;-82
2023/01/30 05:25:53;;;;;;;23.80;13.25;;;4.50;99.90;;;;;;5083507;28;20035;-82
2023/01/30 05:28:19;;;;;;;16.48;7.55;;;4.60;99.90;;;;;;5083951;28;20039;-82
2023/01/30 05:30:44;;;;;;;25.20;14.18;;;4.60;99.90;;;;;;5071708;28;20022;-82
2023/01/30 05:33:10;;;;;;;28.05;18.17;;;4.60;99.90;;;;;;5072937;28;20024;-82
2023/01/30 05:35:35;;;;;;;21.80;11.40;;;4.60;99.90;;;;;;5072813;28;20410;-81
2023/01/30 05:38:02;;;;;;;23.05;13.60;;;4.60;99.90;;;;;;5065191;28;20028;-81
2023/01/30 05:40:27;;;;;;;25.70;14.00;;;4.60;99.90;;;;;;5052234;28;20029;-82
2023/01/30 05:42:53;;;;;;;23.25;12.35;;;4.60;99.90;;;;;;5085055;28;20032;-82
2023/01/30 05:45:19;;;;;;;20.77;11.10;;;4.70;99.90;;;;;;5071633;28;20123;-82
2023/01/30 05:47:48;;;;;;;34.20;18.23;;;4.70;99.90;;;;;;5062759;28;20032;-82
2023/01/30 05:50:17;;;;;;;23.70;16.08;;;4.70;99.90;;;;;;5067376;28;20107;-82
2023/01/30 05:52:43;;;;;;;19.60;11.30;;;4.70;99.90;;;;;;5071582;28;20164;-82
2023/01/30 05:55:09;;;;;;;21.30;12.82;;;4.70;99.90;;;;;;5049957;28;20508;-81
2023/01/30 05:57:34;;;;;;;25.73;15.43;;;4.70;99.90;;;;;;5070667;27;20028;-82
2023/01/30 06:00:00;;;;;;;22.38;11.55;;;4.80;99.90;;;;;;5037313;28;20252;-81
2023/01/30 06:02:25;;;;;;;28.90;12.98;;;4.80;99.90;;;;;;5051923;28;20407;-82
2023/01/30 06:04:51;;;;;;;20.67;11.80;;;4.80;99.90;;;;;;5092155;27;20047;-82
2023/01/30 06:07:16;;;;;;;21.90;10.57;;;4.80;99.90;;;;;;5042797;28;20067;-82
2023/01/30 06:09:42;;;;;;;27.92;16.05;;;4.80;99.90;;;;;;5066739;28;20074;-82
2023/01/30 06:12:08;;;;;;;37.08;25.85;;;4.80;99.90;;;;;;5056135;28;20027;-82
2023/01/30 06:14:33;;;;;;;31.77;20.00;;;4.90;99.90;;;;;;5068836;28;20056;-82
2023/01/30 06:16:59;;;;;;;31.42;19.15;;;4.90;99.90;;;;;;5056155;28;20036;-82
2023/01/30 06:19:24;;;;;;;23.10;12.35;;;4.90;99.90;;;;;;5066557;28;20146;-82
2023/01/30 06:21:50;;;;;;;29.35;17.55;;;4.90;99.90;;;;;;5042601;28;20121;-81
2023/01/30 06:24:15;;;;;;;22.88;14.88;;;5.00;99.90;;;;;;5053792;28;20478;-81
2023/01/30 06:26:41;;;;;;;30.15;17.52;;;5.00;99.90;;;;;;5074379;28;20032;-82
2023/01/30 06:29:06;;;;;;;37.78;20.77;;;5.00;99.90;;;;;;5042607;28;20034;-81
2023/01/30 06:31:32;;;;;;;29.42;13.77;;;5.10;99.90;;;;;;5074818;28;20025;-82
2023/01/30 06:33:58;;;;;;;23.55;15.70;;;5.10;99.90;;;;;;5046536;28;20032;-81
2023/01/30 06:36:23;;;;;;;31.63;18.35;;;5.00;99.90;;;;;;5068647;28;20036;-82
2023/01/30 06:38:49;;;;;;;25.80;14.23;;;5.10;99.90;;;;;;5087390;28;20032;-81
2023/01/30 06:41:14;;;;;;;35.65;13.32;;;5.10;99.90;;;;;;5072571;28;20123;-81
2023/01/30 06:43:41;;;;;;;28.20;14.82;;;5.10;99.90;;;;;;5088440;28;20056;-83
2023/01/30 06:46:06;;;;;;;28.30;14.32;;;5.20;99.90;;;;;;5070563;28;20093;-82
2023/01/30 06:48:35;;;;;;;37.83;18.65;;;5.20;99.90;;;;;;5090531;28;20484;-82
2023/01/30 06:51:00;;;;;;;33.33;19.48;;;5.20;99.90;;;;;;5088809;28;20143;-83
2023/01/30 06:53:29;;;;;;;28.38;16.85;;;5.30;99.90;;;;;;5061265;28;20115;-82
2023/01/30 06:55:58;;;;;;;16.17;10.73;;;5.30;99.90;;;;;;5055269;28;20036;-82
2023/01/30 06:58:23;;;;;;;39.17;19.95;;;5.20;99.90;;;;;;5068254;28;20111;-82
2023/01/30 07:00:49;;;;;;;22.40;14.82;;;5.30;99.90;;;;;;5070806;28;20172;-82
2023/01/30 07:03:16;;;;;;;25.42;13.35;;;5.20;99.90;;;;;;5069310;28;20063;-82
2023/01/30 07:05:42;;;;;;;21.13;11.25;;;5.30;99.90;;;;;;5052208;28;20035;-84
2023/01/30 07:08:08;;;;;;;29.00;14.00;;;5.30;99.90;;;;;;5053493;28;20093;-82
2023/01/30 07:10:34;;;;;;;24.58;12.15;;;5.30;99.90;;;;;;5090089;28;20729;-83
2023/01/30 07:13:00;;;;;;;30.15;17.25;;;5.30;99.90;;;;;;5070557;28;20031;-83
2023/01/30 07:15:26;;;;;;;22.40;10.98;;;5.40;99.90;;;;;;5071551;28;20111;-83
2023/01/30 07:17:51;;;;;;;20.88;11.40;;;5.30;99.90;;;;;;5073189;28;20035;-84
2023/01/30 07:20:17;;;;;;;21.00;9.68;;;5.40;99.90;;;;;;5070591;28;20044;-83
2023/01/30 07:22:51;;;;;;;20.48;12.45;;;5.40;99.90;;;;;;5055979;28;20118;-83
2023/01/30 07:25:17;;;;;;;22.00;12.18;;;5.40;99.90;;;;;;5066752;28;20578;-83
2023/01/30 07:27:42;;;;;;;21.65;10.75;;;5.40;99.90;;;;;;5071385;28;20162;-82
2023/01/30 07:30:09;;;;;;;16.80;8.27;;;5.40;99.90;;;;;;5069266;28;20012;-82
2023/01/30 07:32:34;;;;;;;23.45;11.60;;;5.40;99.90;;;;;;5089615;28;20032;-85
2023/01/30 07:35:00;;;;;;;28.80;13.55;;;5.40;99.90;;;;;;5071841;28;20036;-83
2023/01/30 07:37:25;;;;;;;26.83;14.15;;;5.40;99.90;;;;;;5067432;28;20708;-83
2023/01/30 07:39:51;;;;;;;24.25;11.52;;;5.40;99.90;;;;;;5068474;28;20040;-83
2023/01/30 07:42:16;;;;;;;24.65;11.43;;;5.40;99.90;;;;;;5070286;28;20383;-83
2023/01/30 07:44:42;;;;;;;31.30;11.50;;;5.40;99.90;;;;;;5073059;28;20034;-83
2023/01/30 07:47:14;;;;;;;32.05;13.80;;;5.40;99.90;;;;;;5047077;28;20036;-82
2023/01/30 07:49:39;;;;;;;21.30;7.78;;;5.40;99.90;;;;;;5081863;28;20032;-83
2023/01/30 07:52:05;;;;;;;23.95;11.30;;;5.40;99.90;;;;;;5040573;28;20732;-82
2023/01/30 07:54:30;;;;;;;25.38;12.68;;;5.40;99.90;;;;;;5055603;28;20024;-82
2023/01/30 07:56:56;;;;;;;26.42;12.65;;;5.40;99.90;;;;;;5046740;28;20029;-82
2023/01/30 07:59:21;;;;;;;19.55;9.65;;;5.40;99.90;;;;;;5080213;27;20029;-82
2023/01/30 08:01:47;;;;;;;19.13;7.90;;;5.40;99.90;;;;;;5066129;28;20028;-82
2023/01/30 08:04:12;;;;;;;28.33;12.57;;;5.40;99.90;;;;;;5046063;28;20032;-82
2023/01/30 08:06:38;;;;;;;23.13;10.95;;;5.40;99.90;;;;;;5051596;28;20021;-82
2023/01/30 08:09:04;;;;;;;25.60;10.65;;;5.40;99.90;;;;;;5077854;28;20028;-83
2023/01/30 08:11:29;;;;;;;19.63;8.52;;;5.50;99.90;;;;;;5064719;27;20038;-82
2023/01/30 08:13:55;;;;;;;24.33;9.98;;;5.50;99.90;;;;;;5064853;28;20060;-83
2023/01/30 08:16:20;;;;;;;20.05;7.93;;;5.50;99.90;;;;;;5068101;27;20644;-83
2023/01/30 08:18:46;;;;;;;24.08;9.23;;;5.50;99.90;;;;;;5047411;28;20032;-83
2023/01/30 08:21:12;;;;;;;21.33;9.73;;;5.50;99.90;;;;;;5062878;28;20033;-83
2023/01/30 08:23:37;;;;;;;26.42;10.68;;;5.50;99.90;;;;;;5052554;28;20181;-82
2023/01/30 08:26:03;;;;;;;17.17;8.93;;;5.60;99.90;;;;;;5075908;28;20036;-82
2023/01/30 08:28:29;;;;;;;16.13;5.70;;;5.60;99.90;;;;;;5089437;28;20031;-84
2023/01/30 08:30:54;;;;;;;17.00;6.10;;;5.60;99.90;;;;;;5061692;28;20036;-82
2023/01/30 08:33:24;;;;;;;16.60;5.40;;;5.70;99.90;;;;;;5032909;28;20028;-82
2023/01/30 08:35:50;;;;;;;18.52;8.32;;;5.70;99.90;;;;;;5031669;28;20495;-83
2023/01/30 08:38:16;;;;;;;12.13;5.85;;;5.70;99.90;;;;;;5057158;27;20476;-82
2023/01/30 08:40:42;;;;;;;21.73;7.75;;;5.70;99.90;;;;;;5056678;28;20039;-82
2023/01/30 08:43:07;;;;;;;16.55;6.32;;;5.70;99.90;;;;;;5059506;28;20032;-82
2023/01/30 08:45:33;;;;;;;25.33;8.02;;;5.70;99.90;;;;;;5068658;28;20065;-82
2023/01/30 08:48:00;;;;;;;18.80;5.53;;;5.80;99.90;;;;;;5036339;28;20039;-83
2023/01/30 08:50:25;;;;;;;5.22;2.60;;;5.80;99.90;;;;;;5060203;28;20028;-83
2023/01/30 08:52:51;;;;;;;21.17;5.90;;;5.80;99.90;;;;;;5062587;28;20036;-82
2023/01/30 08:55:17;;;;;;;15.05;4.15;;;5.80;99.90;;;;;;5081679;28;20170;-82
2023/01/30 08:57:43;;;;;;;19.70;5.30;;;5.80;99.90;;;;;;5044980;28;20032;-83
2023/01/30 09:00:09;;;;;;;11.00;4.10;;;5.80;99.90;;;;;;5085148;28;20087;-83
2023/01/30 09:02:34;;;;;;;10.30;3.67;;;5.80;99.90;;;;;;5068352;28;20028;-82
2023/01/30 09:05:00;;;;;;;17.90;4.50;;;5.80;99.90;;;;;;5033526;28;20728;-82
2023/01/30 09:07:27;;;;;;;15.38;3.72;;;5.90;99.90;;;;;;5064583;28;20472;-82
2023/01/30 09:09:56;;;;;;;16.52;3.70;;;5.90;99.90;;;;;;5059444;28;20085;-82
2023/01/30 09:12:22;;;;;;;12.88;2.22;;;5.90;99.90;;;;;;5074056;28;20450;-82
2023/01/30 09:14:47;;;;;;;13.60;2.97;;;6.00;99.90;;;;;;5060485;28;20035;-82
2023/01/30 09:17:13;;;;;;;14.75;3.15;;;6.00;99.90;;;;;;5061289;28;20093;-82
2023/01/30 09:19:38;;;;;;;6.10;2.60;;;6.00;99.90;;;;;;5049343;27;20093;-82
2023/01/30 09:22:04;;;;;;;7.22;2.28;;;6.00;99.90;;;;;;5058199;28;20039;-83
2023/01/30 09:24:29;;;;;;;19.10;3.55;;;6.00;99.90;;;;;;5044253;28;20032;-82
2023/01/30 09:26:58;;;;;;;15.15;3.78;;;6.10;99.90;;;;;;5063111;28;20042;-82
2023/01/30 09:29:27;;;;;;;11.07;2.70;;;6.10;99.90;;;;;;5065994;28;20031;-82
2023/01/30 09:31:55;;;;;;;15.30;3.22;;;6.10;99.90;;;;;;5040648;28;20029;-83
2023/01/30 09:34:26;;;;;;;19.20;3.42;;;6.10;99.90;;;;;;5045501;27;20028;-82
2023/01/30 09:36:52;;;;;;;11.98;3.25;;;6.10;99.90;;;;;;5062464;28;20040;-82
2023/01/30 09:39:19;;;;;;;24.77;2.92;;;6.10;99.90;;;;;;5062290;28;20396;-81
2023/01/30 09:42:10;;;;;;;24.20;3.42;;;6.20;99.90;;;;;;5077803;28;20093;-82
2023/01/30 09:44:50;;;;;;;18.27;3.40;;;6.20;99.90;;;;;;5075335;28;20028;-82
2023/01/30 09:47:48;;;;;;;8.32;2.33;;;6.20;99.90;;;;;;5047282;28;20432;-82
2023/01/30 09:50:26;;;;;;;22.90;2.50;;;6.20;99.90;;;;;;5060938;28;20045;-82
2023/01/30 09:53:19;;;;;;;15.40;3.30;;;6.20;99.90;;;;;;5078158;28;20120;-82
2023/01/30 09:55:45;;;;;;;4.70;1.40;;;6.30;99.90;;;;;;5061392;28;20047;-82
2023/01/30 09:58:18;;;;;;;11.82;2.15;;;6.30;99.90;;;;;;5057139;28;20033;-82
2023/01/30 10:00:45;;;;;;;14.73;2.25;;;6.30;99.90;;;;;;5060359;28;20450;-82
2023/01/30 10:03:19;;;;;;;19.58;4.28;;;6.40;99.90;;;;;;5048778;28;20548;-81
2023/01/30 10:05:58;;;;;;;9.32;2.45;;;6.40;99.90;;;;;;5046573;28;20048;-82
2023/01/30 10:08:47;;;;;;;17.02;2.97;;;6.40;99.90;;;;;;5051739;28;20033;-82
2023/01/30 10:11:46;;;;;;;21.77;3.97;;;6.40;99.90;;;;;;5053241;28;20412;-82
2023/01/30 10:14:39;;;;;;;12.48;2.40;;;6.40;99.90;;;;;;5067550;28;20028;-82
2023/01/30 10:17:16;;;;;;;15.93;3.65;;;6.40;99.90;;;;;;5061983;28;20403;-82
2023/01/30 10:20:02;;;;;;;12.30;2.78;;;6.40;99.90;;;;;;5065702;28;20029;-82
2023/01/30 10:22:40;;;;;;;20.03;4.07;;;6.40;99.90;;;;;;5086130;28;20498;-82
2023/01/30 10:25:29;;;;;;;27.38;3.28;;;6.40;99.90;;;;;;5076835;28;20471;-82
2023/01/30 10:28:09;;;;;;;16.05;2.70;;;6.40;99.90;;;;;;5075172;27;20123;-81
2023/01/30 10:30:34;;;;;;;18.35;3.42;;;6.50;99.90;;;;;;5047586;28;20032;-82
2023/01/30 10:33:03;;;;;;;18.55;2.38;;;6.60;99.90;;;;;;5060001;28;20037;-82
2023/01/30 10:35:34;;;;;;;19.50;3.72;;;6.60;99.90;;;;;;5048971;28;20427;-82
2023/01/30 10:38:38;;;;;;;12.75;2.10;;;6.60;99.90;;;;;;5021022;28;20039;-82
2023/01/30 10:41:24;;;;;;;16.55;2.53;;;6.60;99.90;;;;;;5064454;28;20028;-82
2023/01/30 10:43:57;;;;;;;20.85;2.97;;;6.60;99.90;;;;;;5078931;27;20036;-82
2023/01/30 10:46:32;;;;;;;20.95;2.47;;;6.80;99.90;;;;;;5057887;28;20032;-81
2023/01/30 10:49:01;;;;;;;11.00;1.60;;;6.70;99.90;;;;;;5078456;28;20522;-81
2023/01/30 10:52:00;;;;;;;8.93;1.80;;;6.70;99.90;;;;;;5024891;28;20387;-81
2023/01/30 10:54:40;;;;;;;14.57;3.45;;;6.70;99.90;;;;;;5080020;28;20220;-81
2023/01/30 10:57:17;;;;;;;13.35;2.80;;;6.60;99.90;;;;;;5030481;28;20044;-81
2023/01/30 10:59:49;;;;;;;18.23;2.80;;;6.70;99.90;;;;;;5053333;28;20460;-81
2023/01/30 11:02:29;;;;;;;13.68;2.35;;;6.80;99.90;;;;;;5086803;28;20060;-81
2023/01/30 11:04:58;;;;;;;9.57;1.75;;;6.80;99.90;;;;;;5057802;28;20047;-81
2023/01/30 11:07:26;;;;;;;16.35;2.70;;;6.90;99.90;;;;;;5055268;28;20507;-81
2023/01/30 11:09:51;;;;;;;7.82;1.75;;;6.90;99.90;;;;;;5020340;28;20526;-82
2023/01/30 11:12:17;;;;;;;18.42;2.08;;;6.90;99.90;;;;;;5054347;28;20020;-81
2023/01/30 11:14:49;;;;;;;14.70;2.08;;;6.90;99.90;;;;;;5043431;28;20035;-82
2023/01/30 11:17:16;;;;;;;18.75;2.63;;;6.90;99.90;;;;;;5036224;28;20392;-82
2023/01/30 11:19:41;;;;;;;18.52;2.60;;;7.00;99.90;;;;;;5056732;28;20023;-83
2023/01/30 11:22:11;;;;;;;21.40;2.30;;;7.00;99.90;;;;;;5062134;28;20033;-82
2023/01/30 11:24:39;;;;;;;9.32;2.15;;;7.00;99.90;;;;;;5055799;28;20977;-82
2023/01/30 11:27:20;;;;;;;25.27;3.22;;;7.00;99.90;;;;;;5021411;28;20503;-83
2023/01/30 11:29:46;;;;;;;18.55;3.40;;;7.00;99.90;;;;;;5059497;28;20055;-83
2023/01/30 11:32:15;;;;;;;21.67;2.92;;;7.10;99.90;;;;;;5056998;28;20505;-83
2023/01/30 11:34:43;;;;;;;12.15;1.60;;;7.10;99.90;;;;;;5048541;28;20491;-82
2023/01/30 11:37:24;;;;;;;7.78;2.85;;;7.10;99.90;;;;;;5074718;28;20040;-82
2023/01/30 11:39:50;;;;;;;15.57;2.25;;;7.20;99.90;;;;;;5073806;28;20388;-82
2023/01/30 11:42:17;;;;;;;14.93;1.95;;;7.20;99.90;;;;;;5074166;28;20059;-83
2023/01/30 11:44:42;;;;;;;18.42;3.00;;;7.30;99.90;;;;;;5055715;28;20111;-83
2023/01/30 11:47:12;;;;;;;28.20;3.50;;;7.30;99.90;;;;;;5074242;28;21080;-82
2023/01/30 11:49:50;;;;;;;15.30;2.67;;;7.40;99.90;;;;;;5085646;28;20028;-83
2023/01/30 11:52:16;;;;;;;12.52;2.88;;;7.40;99.90;;;;;;5070722;28;20035;-82
2023/01/30 11:54:47;;;;;;;12.23;2.90;;;7.40;99.90;;;;;;5073958;28;20119;-82
2023/01/30 11:57:14;;;;;;;14.85;2.83;;;7.40;99.90;;;;;;5045962;28;20028;-83
2023/01/30 12:00:00;;;;;;;16.23;2.28;;;7.50;99.90;;;;;;5075174;28;20028;-82
2023/01/30 12:02:30;;;;;;;14.55;2.33;;;7.50;99.90;;;;;;5076400;28;20112;-82
2023/01/30 12:05:03;;;;;;;9.85;3.08;;;7.40;99.90;;;;;;5075544;28;20047;-83
2023/01/30 12:07:35;;;;;;;12.07;3.10;;;7.40;99.90;;;;;;5057743;28;20521;-83
2023/01/30 12:10:18;;;;;;;15.13;2.28;;;7.40;99.90;;;;;;5052854;28;20024;-83
2023/01/30 12:12:48;;;;;;;9.65;1.67;;;7.30;99.90;;;;;;5073385;28;20416;-83
2023/01/30 12:15:21;;;;;;;15.02;2.78;;;7.40;99.90;;;;;;5046229;28;20381;-83
2023/01/30 12:17:53;;;;;;;12.85;1.73;;;7.40;99.90;;;;;;5067814;28;20032;-83
2023/01/30 12:20:40;;;;;;;17.08;2.33;;;7.40;99.90;;;;;;5065620;28;20061;-84
2023/01/30 12:23:27;;;;;;;20.23;4.00;;;7.50;99.90;;;;;;5061075;28;20033;-83
2023/01/30 12:26:06;;;;;;;22.80;4.05;;;7.50;99.90;;;;;;5075262;28;20040;-83
2023/01/30 12:28:40;;;;;;;17.10;3.70;;;7.50;99.90;;;;;;5073547;28;20505;-82
2023/01/30 12:31:25;;;;;;;19.65;3.22;;;7.60;99.90;;;;;;5046550;28;20057;-83
2023/01/30 12:33:53;;;;;;;14.13;1.98;;;7.70;99.90;;;;;;5044154;28;20031;-83
2023/01/30 12:36:18;;;;;;;11.73;2.20;;;7.70;99.90;;;;;;5063234;28;20056;-83
2023/01/30 12:39:27;;;;;;;12.73;2.28;;;7.70;99.90;;;;;;5070508;28;20079;-83
2023/01/30 12:42:07;;;;;;;12.05;2.50;;;7.70;99.90;;;;;;5076849;28;20032;-83
2023/01/30 12:44:49;;;;;;;22.48;4.80;;;7.80;99.90;;;;;;5073855;28;20036;-83
2023/01/30 12:47:45;;;;;;;19.80;2.97;;;7.70;99.90;;;;;;5068254;28;20458;-84
2023/01/30 12:50:11;;;;;;;17.17;2.78;;;7.80;99.90;;;;;;5074077;28;20519;-83
2023/01/30 12:52:55;;;;;;;15.95;2.88;;;7.80;99.90;;;;;;5072281;28;20032;-83
2023/01/30 12:55:26;;;;;;;17.67;2.53;;;7.90;99.90;;;;;;5054068;28;20029;-84
2023/01/30 12:58:13;;;;;;;12.23;2.33;;;7.80;99.90;;;;;;5064427;28;20032;-82
2023/01/30 13:01:12;;;;;;;8.27;1.52;;;7.90;99.90;;;;;;5078469;28;20048;-83